createdAt,value
2022-08-19T00:00:17.072Z,16.13
2022-08-19T00:02:50.419Z,16.09
2022-08-19T00:05:21.744Z,16.08
2022-08-19T00:07:52.822Z,16.09
2022-08-19T00:10:25.348Z,16.08
2022-08-19T00:12:56.998Z,16.04
2022-08-19T00:15:26.885Z,16.02
2022-08-19T00:17:58.022Z,15.99
2022-08-19T00:20:28.430Z,15.99
2022-08-19T00:22:58.940Z,15.92
2022-08-19T00:25:29.969Z,15.95
2022-08-19T00:28:02.551Z,15.94
2022-08-19T00:30:33.041Z,15.98
2022-08-19T00:33:03.422Z,15.92
2022-08-19T00:35:33.380Z,15.95
2022-08-19T00:38:03.503Z,15.97
2022-08-19T00:40:33.441Z,15.99
2022-08-19T00:43:10.220Z,15.98
2022-08-19T00:45:42.730Z,15.87
2022-08-19T00:48:14.812Z,15.88
2022-08-19T00:52:46.771Z,15.90
2022-08-19T00:55:21.050Z,15.90
2022-08-19T00:57:57.024Z,15.86
2022-08-19T01:00:30.179Z,15.83
2022-08-19T01:03:00.323Z,15.80
2022-08-19T01:05:32.703Z,15.83
2022-08-19T01:08:05.718Z,15.83
2022-08-19T01:10:40.561Z,15.83
2022-08-19T01:13:10.679Z,15.75
2022-08-19T01:15:48.046Z,15.62
2022-08-19T01:18:20.746Z,15.62
2022-08-19T01:20:51.923Z,15.61
2022-08-19T01:23:44.164Z,15.58
2022-08-19T01:26:18.121Z,15.59
2022-08-19T01:29:00.713Z,15.52
2022-08-19T01:31:33.287Z,15.56
2022-08-19T01:34:05.620Z,15.54
2022-08-19T01:36:43.132Z,15.49
2022-08-19T01:39:18.684Z,15.48
2022-08-19T01:41:49.199Z,15.50
2022-08-19T01:44:21.704Z,15.49
2022-08-19T01:46:52.958Z,15.45
2022-08-19T01:49:25.808Z,15.43
2022-08-19T01:51:57.063Z,15.40
2022-08-19T01:54:28.640Z,15.35
2022-08-19T01:57:05.040Z,15.39
2022-08-19T01:59:37.746Z,15.34
2022-08-19T02:02:09.842Z,15.33
2022-08-19T02:04:40.452Z,15.35
2022-08-19T02:07:10.766Z,15.31
2022-08-19T02:09:42.243Z,15.30
2022-08-19T02:12:12.393Z,15.30
2022-08-19T02:14:42.368Z,15.27
2022-08-19T02:17:12.639Z,15.30
2022-08-19T02:19:43.260Z,15.31
2022-08-19T02:22:13.322Z,15.28
2022-08-19T02:24:44.773Z,15.30
2022-08-19T02:27:14.763Z,15.30
2022-08-19T02:29:45.081Z,15.30
2022-08-19T02:32:14.985Z,15.26
2022-08-19T02:34:45.200Z,15.29
2022-08-19T02:37:28.943Z,15.29
2022-08-19T02:40:00.945Z,15.28
2022-08-19T02:42:31.623Z,15.28
2022-08-19T02:45:01.754Z,15.24
2022-08-19T02:47:31.843Z,15.24
2022-08-19T02:50:02.945Z,15.27
2022-08-19T02:52:33.583Z,15.27
2022-08-19T02:55:05.603Z,15.28
2022-08-19T02:57:37.163Z,15.21
2022-08-19T03:00:10.519Z,15.20
2022-08-19T03:02:40.364Z,15.26
2022-08-19T03:05:12.569Z,15.19
2022-08-19T03:07:42.541Z,15.20
2022-08-19T03:10:13.951Z,15.20
2022-08-19T03:12:43.904Z,15.22
2022-08-19T03:15:13.996Z,15.26
2022-08-19T03:17:43.976Z,15.28
2022-08-19T03:20:14.634Z,15.25
2022-08-19T03:22:44.494Z,15.26
2022-08-19T03:25:16.836Z,15.29
2022-08-19T03:27:50.298Z,15.19
2022-08-19T03:30:23.273Z,15.10
2022-08-19T03:32:57.234Z,15.14
2022-08-19T03:35:27.603Z,15.14
2022-08-19T03:37:57.730Z,15.25
2022-08-19T03:40:31.241Z,15.34
2022-08-19T03:43:01.378Z,15.33
2022-08-19T03:45:31.553Z,15.35
2022-08-19T03:48:01.825Z,15.37
2022-08-19T03:53:39.203Z,15.44
2022-08-19T03:56:14.290Z,15.49
2022-08-19T03:58:45.959Z,15.51
2022-08-19T04:01:19.033Z,15.55
2022-08-19T04:03:49.404Z,15.61
2022-08-19T04:06:22.468Z,15.62
2022-08-19T04:08:56.358Z,15.68
2022-08-19T04:11:43.700Z,15.70
2022-08-19T04:14:19.180Z,15.71
2022-08-19T04:16:50.341Z,15.70
2022-08-19T04:19:22.064Z,15.75
2022-08-19T04:21:54.761Z,15.82
2022-08-19T04:24:27.288Z,15.90
2022-08-19T04:26:57.322Z,15.96
2022-08-19T04:29:28.700Z,16.03
2022-08-19T04:32:00.360Z,16.07
2022-08-19T04:35:02.355Z,16.11
2022-08-19T04:37:35.355Z,16.21
2022-08-19T04:40:27.867Z,16.36
2022-08-19T04:42:57.743Z,16.55
2022-08-19T04:45:27.525Z,16.77
2022-08-19T04:48:26.877Z,17.00
2022-08-19T04:50:50.812Z,17.27
2022-08-19T04:53:20.894Z,17.44
2022-08-19T04:55:52.541Z,17.61
2022-08-19T04:58:22.500Z,17.78
2022-08-19T05:00:52.427Z,18.01
2022-08-19T05:03:25.594Z,18.23
2022-08-19T05:05:59.242Z,18.43
2022-08-19T05:08:32.343Z,18.63
2022-08-19T05:11:04.239Z,18.84
2022-08-19T05:13:34.189Z,19.01
2022-08-19T05:16:04.141Z,19.15
2022-08-19T05:18:51.101Z,19.29
2022-08-19T05:21:40.091Z,19.55
2022-08-19T05:24:10.644Z,19.69
2022-08-19T05:26:44.199Z,19.87
2022-08-19T05:29:14.261Z,20.16
2022-08-19T05:31:44.601Z,20.34
2022-08-19T05:34:20.268Z,20.61
2022-08-19T05:36:58.425Z,20.89
2022-08-19T05:39:31.467Z,21.12
2022-08-19T05:42:07.204Z,21.33
2022-08-19T05:44:40.784Z,21.72
2022-08-19T05:47:11.384Z,22.16
2022-08-19T05:49:41.840Z,22.31
2022-08-19T05:52:18.634Z,22.46
2022-08-19T05:54:52.500Z,22.70
2022-08-19T05:57:24.042Z,22.99
2022-08-19T05:59:58.563Z,23.19
2022-08-19T06:02:29.100Z,23.43
2022-08-19T06:04:58.967Z,23.70
2022-08-19T06:07:30.117Z,23.92
2022-08-19T06:10:01.344Z,24.16
2022-08-19T06:12:36.246Z,24.37
2022-08-19T06:15:11.161Z,24.65
2022-08-19T06:17:41.962Z,24.91
2022-08-19T06:20:15.385Z,25.12
2022-08-19T06:22:52.681Z,25.17
2022-08-19T06:25:22.842Z,25.31
2022-08-19T06:28:13.931Z,25.40
2022-08-19T06:30:44.068Z,25.50
2022-08-19T06:33:14.045Z,25.60
2022-08-19T06:38:20.802Z,25.73
2022-08-19T06:40:50.851Z,25.86
2022-08-19T06:43:23.947Z,25.96
2022-08-19T06:46:00.384Z,25.97
2022-08-19T06:48:31.355Z,26.06
2022-08-19T06:53:39.671Z,26.32
2022-08-19T06:56:09.936Z,26.40
2022-08-19T06:58:39.865Z,26.52
2022-08-19T07:01:10.692Z,26.69
2022-08-19T07:03:42.265Z,26.79
2022-08-19T07:06:43.092Z,26.81
2022-08-19T07:09:12.483Z,26.90
2022-08-19T07:11:45.883Z,26.95
2022-08-19T07:14:19.993Z,27.00
2022-08-19T07:16:52.784Z,27.15
2022-08-19T07:19:23.683Z,27.26
2022-08-19T07:21:55.325Z,27.38
2022-08-19T07:24:30.264Z,27.47
2022-08-19T07:27:15.082Z,27.58
2022-08-19T07:29:45.981Z,27.64
2022-08-19T07:32:27.833Z,27.66
2022-08-19T07:34:58.040Z,27.81
2022-08-19T07:37:33.178Z,27.99
2022-08-19T07:40:09.347Z,28.16
2022-08-19T07:42:39.327Z,28.25
2022-08-19T07:45:11.341Z,28.27
2022-08-19T07:47:49.585Z,28.34
2022-08-19T07:50:22.922Z,28.33
2022-08-19T07:52:53.663Z,28.33
2022-08-19T07:55:41.655Z,28.39
2022-08-19T07:58:16.320Z,28.58
2022-08-19T08:00:48.173Z,28.76
2022-08-19T08:03:21.983Z,28.80
2022-08-19T08:06:09.122Z,28.86
2022-08-19T08:08:56.503Z,28.85
2022-08-19T08:11:29.662Z,28.92
2022-08-19T08:14:01.234Z,29.09
2022-08-19T08:16:39.683Z,29.26
2022-08-19T08:19:25.456Z,29.21
2022-08-19T08:21:57.281Z,29.13
2022-08-19T08:24:28.659Z,29.08
2022-08-19T08:27:01.745Z,29.20
2022-08-19T08:29:34.889Z,29.05
2022-08-19T08:32:14.169Z,28.80
2022-08-19T08:34:45.184Z,28.64
2022-08-19T08:37:20.104Z,28.60
2022-08-19T08:39:49.978Z,28.67
2022-08-19T08:42:37.704Z,28.98
2022-08-19T08:45:16.239Z,29.24
2022-08-19T08:47:50.514Z,29.36
2022-08-19T08:50:28.765Z,28.94
2022-08-19T08:53:01.004Z,28.80
2022-08-19T08:55:36.920Z,28.65
2022-08-19T08:58:17.182Z,28.57
2022-08-19T09:00:51.284Z,28.75
2022-08-19T09:03:24.859Z,28.61
2022-08-19T09:06:03.511Z,28.33
2022-08-19T09:08:46.106Z,28.48
2022-08-19T09:11:42.797Z,28.56
2022-08-19T09:14:49.811Z,28.61
2022-08-19T09:17:21.684Z,28.54
2022-08-19T09:19:56.013Z,28.59
2022-08-19T09:22:28.193Z,28.59
2022-08-19T09:24:58.886Z,28.56
2022-08-19T09:27:42.820Z,28.66
2022-08-19T09:30:20.184Z,28.67
2022-08-19T09:32:52.800Z,28.71
2022-08-19T09:35:24.740Z,28.98
2022-08-19T09:37:57.605Z,28.97
2022-08-19T09:40:32.649Z,28.96
2022-08-19T09:43:12.998Z,29.21
2022-08-19T09:45:45.508Z,29.49
2022-08-19T09:48:18.894Z,29.82
2022-08-19T09:53:38.121Z,30.07
2022-08-19T09:56:10.644Z,30.32
2022-08-19T09:58:40.900Z,30.55
2022-08-19T10:01:12.029Z,30.40
2022-08-19T10:03:42.011Z,30.28
2022-08-19T10:06:14.962Z,30.28
2022-08-19T10:08:50.711Z,30.47
2022-08-19T10:11:28.587Z,30.69
2022-08-19T10:14:08.305Z,30.57
2022-08-19T10:16:40.508Z,30.65
2022-08-19T10:19:10.764Z,30.77
2022-08-19T10:21:41.560Z,30.80
2022-08-19T10:24:13.102Z,30.67
2022-08-19T10:26:46.502Z,30.45
2022-08-19T10:29:32.969Z,30.20
2022-08-19T10:32:04.184Z,30.05
2022-08-19T10:34:35.043Z,30.09
2022-08-19T10:37:06.087Z,30.04
2022-08-19T10:39:43.083Z,30.02
2022-08-19T10:42:14.581Z,30.21
2022-08-19T10:44:45.362Z,30.42
2022-08-19T10:47:17.322Z,30.75
2022-08-19T10:50:13.440Z,30.99
2022-08-19T10:52:49.118Z,31.10
2022-08-19T10:55:41.751Z,31.31
2022-08-19T10:58:18.029Z,31.60
2022-08-19T11:00:56.024Z,31.70
2022-08-19T11:03:29.019Z,31.62
2022-08-19T11:06:03.307Z,31.70
2022-08-19T11:08:33.473Z,31.86
2022-08-19T11:11:06.587Z,31.92
2022-08-19T11:13:38.892Z,31.56
2022-08-19T11:16:12.782Z,31.41
2022-08-19T11:18:45.620Z,31.33
2022-08-19T11:21:20.629Z,31.18
2022-08-19T11:23:52.862Z,31.01
2022-08-19T11:26:25.624Z,30.94
2022-08-19T11:28:56.601Z,30.87
2022-08-19T11:31:29.464Z,30.81
2022-08-19T11:34:00.922Z,30.59
2022-08-19T11:36:31.778Z,30.51
2022-08-19T11:39:02.081Z,30.46
2022-08-19T11:41:33.471Z,30.48
2022-08-19T11:44:04.411Z,30.68
2022-08-19T11:46:35.362Z,30.97
2022-08-19T11:49:09.577Z,31.37
2022-08-19T11:51:43.365Z,31.58
2022-08-19T11:54:13.003Z,31.47
2022-08-19T11:56:45.006Z,31.11
2022-08-19T11:59:15.084Z,31.25
2022-08-19T12:01:45.120Z,31.41
2022-08-19T12:04:15.692Z,31.75
2022-08-19T12:06:48.542Z,31.89
2022-08-19T12:09:19.025Z,32.13
2022-08-19T12:11:50.421Z,31.94
2022-08-19T12:14:20.461Z,31.58
2022-08-19T12:16:52.109Z,31.18
2022-08-19T12:19:22.840Z,30.87
2022-08-19T12:21:54.393Z,30.71
2022-08-19T12:24:24.598Z,30.71
2022-08-19T12:26:56.670Z,30.73
2022-08-19T12:29:32.042Z,30.90
2022-08-19T12:32:03.910Z,31.00
2022-08-19T12:34:35.509Z,31.01
2022-08-19T12:37:07.942Z,30.75
2022-08-19T12:39:44.025Z,30.80
2022-08-19T12:42:17.061Z,31.31
2022-08-19T12:44:47.743Z,31.84
2022-08-19T12:47:19.624Z,32.08
2022-08-19T12:49:55.138Z,32.12
2022-08-19T12:53:39.252Z,32.33
2022-08-19T12:56:11.474Z,32.24
2022-08-19T12:58:48.929Z,32.12
2022-08-19T13:01:22.966Z,31.72
2022-08-19T13:03:54.829Z,31.41
2022-08-19T13:06:24.373Z,31.20
2022-08-19T13:08:59.693Z,31.13
2022-08-19T13:11:33.719Z,31.18
2022-08-19T13:14:05.098Z,31.28
2022-08-19T13:16:34.923Z,31.26
2022-08-19T13:19:06.460Z,30.92
2022-08-19T13:21:36.591Z,30.82
2022-08-19T13:24:09.942Z,30.75
2022-08-19T13:26:39.913Z,30.61
2022-08-19T13:29:26.963Z,30.42
2022-08-19T13:32:13.858Z,30.28
2022-08-19T13:34:49.213Z,30.11
2022-08-19T13:37:39.587Z,30.00
2022-08-19T13:40:18.312Z,29.90
2022-08-19T13:42:50.543Z,29.83
2022-08-19T13:45:23.484Z,29.76
2022-08-19T13:47:59.143Z,29.72
2022-08-19T13:50:33.423Z,29.75
2022-08-19T13:53:05.612Z,29.71
2022-08-19T13:55:37.380Z,29.66
2022-08-19T13:58:07.741Z,29.64
2022-08-19T14:00:40.661Z,29.69
2022-08-19T14:03:10.863Z,29.71
2022-08-19T14:05:41.023Z,29.70
2022-08-19T14:08:11.441Z,29.64
2022-08-19T14:10:45.570Z,29.62
2022-08-19T14:13:21.514Z,29.61
2022-08-19T14:15:51.562Z,29.61
2022-08-19T14:18:22.821Z,29.65
2022-08-19T14:20:57.959Z,29.62
2022-08-19T14:23:28.532Z,29.50
2022-08-19T14:26:08.323Z,29.47
2022-08-19T14:28:38.460Z,29.44
2022-08-19T14:31:08.830Z,29.36
2022-08-19T14:33:39.180Z,29.32
2022-08-19T14:36:10.213Z,29.22
2022-08-19T14:38:40.702Z,29.16
2022-08-19T14:41:20.625Z,29.13
2022-08-19T14:43:53.846Z,29.08
2022-08-19T14:46:29.539Z,29.06
2022-08-19T14:49:00.379Z,28.96
2022-08-19T14:51:30.784Z,28.91
2022-08-19T14:54:01.003Z,28.91
2022-08-19T14:56:33.870Z,28.85
2022-08-19T14:59:03.885Z,28.75
2022-08-19T15:01:33.790Z,28.67
2022-08-19T15:04:03.948Z,28.56
2022-08-19T15:06:34.239Z,28.54
2022-08-19T15:09:05.065Z,28.51
2022-08-19T15:11:36.864Z,28.45
2022-08-19T15:14:08.303Z,28.38
2022-08-19T15:16:42.123Z,28.33
2022-08-19T15:19:13.142Z,28.27
2022-08-19T15:21:43.020Z,28.19
2022-08-19T15:24:13.061Z,28.03
2022-08-19T15:26:46.243Z,28.03
2022-08-19T15:29:17.083Z,28.07
2022-08-19T15:31:47.323Z,28.07
2022-08-19T15:34:19.284Z,28.05
2022-08-19T15:36:49.196Z,28.04
2022-08-19T15:39:19.780Z,28.08
2022-08-19T15:41:51.665Z,28.06
2022-08-19T15:44:23.562Z,28.02
2022-08-19T15:46:53.690Z,28.04
2022-08-19T15:49:24.360Z,28.04
2022-08-19T15:53:42.363Z,27.96
2022-08-19T15:56:13.643Z,27.91
2022-08-19T15:59:00.559Z,27.83
2022-08-19T16:01:48.250Z,27.79
2022-08-19T16:04:36.911Z,27.78
2022-08-19T16:07:08.870Z,27.70
2022-08-19T16:09:40.383Z,27.62
2022-08-19T16:12:11.155Z,27.62
2022-08-19T16:14:41.161Z,27.57
2022-08-19T16:17:13.023Z,27.47
2022-08-19T16:19:43.031Z,27.40
2022-08-19T16:22:12.811Z,27.36
2022-08-19T16:24:44.363Z,27.31
2022-08-19T16:27:14.182Z,27.27
2022-08-19T16:29:44.083Z,27.24
2022-08-19T16:32:14.842Z,27.14
2022-08-19T16:34:44.923Z,27.13
2022-08-19T16:37:15.344Z,27.12
2022-08-19T16:39:47.285Z,27.06
2022-08-19T16:42:17.903Z,27.02
2022-08-19T16:44:49.140Z,26.95
2022-08-19T16:47:19.068Z,26.91
2022-08-19T16:49:54.254Z,26.85
2022-08-19T16:52:26.600Z,26.83
2022-08-19T16:54:58.461Z,26.80
2022-08-19T16:57:28.340Z,26.77
2022-08-19T16:59:58.144Z,26.75
2022-08-19T17:02:29.732Z,26.72
2022-08-19T17:05:01.220Z,26.68
2022-08-19T17:07:33.097Z,26.61
2022-08-19T17:10:07.064Z,26.60
2022-08-19T17:12:37.969Z,26.60
2022-08-19T17:15:09.982Z,26.51
2022-08-19T17:17:39.924Z,26.43
2022-08-19T17:20:11.104Z,26.41
2022-08-19T17:22:40.856Z,26.35
2022-08-19T17:25:12.574Z,26.30
2022-08-19T17:27:41.931Z,26.29
2022-08-19T17:30:12.753Z,26.24
2022-08-19T17:32:42.621Z,26.20
2022-08-19T17:35:23.941Z,26.17
2022-08-19T17:37:54.278Z,26.15
2022-08-19T17:40:29.216Z,26.12
2022-08-19T17:42:59.989Z,26.07
2022-08-19T17:45:30.600Z,26.05
2022-08-19T17:48:01.200Z,25.90
2022-08-19T17:50:32.011Z,25.77
2022-08-19T17:53:02.379Z,25.71
2022-08-19T17:55:34.568Z,25.64
2022-08-19T17:58:05.700Z,25.53
2022-08-19T18:00:53.758Z,25.42
2022-08-19T18:03:23.841Z,25.20
2022-08-19T18:05:53.843Z,24.99
2022-08-19T18:08:23.826Z,24.78
2022-08-19T18:10:55.125Z,24.64
2022-08-19T18:13:25.138Z,24.55
2022-08-19T18:15:55.064Z,24.52
2022-08-19T18:18:25.723Z,24.42
2022-08-19T18:20:55.925Z,24.29
2022-08-19T18:23:43.955Z,24.17
2022-08-19T18:26:18.128Z,24.06
2022-08-19T18:28:50.024Z,23.86
2022-08-19T18:31:20.273Z,23.77
2022-08-19T18:33:52.886Z,23.95
2022-08-19T18:36:50.159Z,24.08
2022-08-19T18:39:30.581Z,24.13
2022-08-19T18:42:19.002Z,24.18
2022-08-19T18:45:06.138Z,24.01
2022-08-19T18:47:58.580Z,23.84
2022-08-19T18:53:41.392Z,23.19
2022-08-19T18:56:13.710Z,23.16
2022-08-19T18:58:45.108Z,23.02
2022-08-19T19:01:22.530Z,22.93
2022-08-19T19:03:56.347Z,22.83
2022-08-19T19:06:30.301Z,22.70
2022-08-19T19:09:01.741Z,22.77
2022-08-19T19:11:34.218Z,22.95
2022-08-19T19:14:16.296Z,23.28
2022-08-19T19:16:57.922Z,23.69
2022-08-19T19:19:28.060Z,23.87
2022-08-19T19:22:01.429Z,24.04
2022-08-19T19:24:38.046Z,24.13
2022-08-19T19:27:10.472Z,24.12
2022-08-19T19:29:40.764Z,24.15
2022-08-19T19:32:18.522Z,24.16
2022-08-19T19:34:48.703Z,24.17
2022-08-19T19:37:18.957Z,24.17
2022-08-19T19:39:50.430Z,24.20
2022-08-19T19:42:24.081Z,24.13
2022-08-19T19:44:56.862Z,24.18
2022-08-19T19:47:30.644Z,24.24
2022-08-19T19:50:16.375Z,24.11
2022-08-19T19:52:47.856Z,23.99
2022-08-19T19:55:20.426Z,23.99
2022-08-19T19:57:51.084Z,24.04
2022-08-19T20:00:22.450Z,23.93
2022-08-19T20:02:53.822Z,23.75
2022-08-19T20:05:24.885Z,23.52
2022-08-19T20:08:13.577Z,23.20
2022-08-19T20:10:47.368Z,22.95
2022-08-19T20:13:17.243Z,22.78
2022-08-19T20:15:47.570Z,22.66
2022-08-19T20:18:17.443Z,22.48
2022-08-19T20:20:50.531Z,22.36
2022-08-19T20:23:21.855Z,22.21
2022-08-19T20:25:55.166Z,22.07
2022-08-19T20:28:25.188Z,21.94
2022-08-19T20:30:55.882Z,21.77
2022-08-19T20:33:25.682Z,21.63
2022-08-19T20:35:55.841Z,21.51
2022-08-19T20:38:26.129Z,21.49
2022-08-19T20:40:57.447Z,21.43
2022-08-19T20:43:27.463Z,21.42
2022-08-19T20:45:57.618Z,21.36
2022-08-19T20:48:27.683Z,21.27
2022-08-19T20:50:57.824Z,21.23
2022-08-19T20:53:29.302Z,21.11
2022-08-19T20:56:00.899Z,21.08
2022-08-19T20:58:31.021Z,20.95
2022-08-19T21:01:04.307Z,20.89
2022-08-19T21:03:43.445Z,20.79
2022-08-19T21:06:15.502Z,20.73
2022-08-19T21:08:45.481Z,20.68
2022-08-19T21:11:20.790Z,20.64
2022-08-19T21:13:50.839Z,20.63
2022-08-19T21:16:20.842Z,20.60
2022-08-19T21:18:50.783Z,20.56
2022-08-19T21:21:20.703Z,20.52
2022-08-19T21:23:50.518Z,20.48
2022-08-19T21:26:21.962Z,20.40
2022-08-19T21:28:51.819Z,20.34
2022-08-19T21:31:22.015Z,20.30
2022-08-19T21:33:52.006Z,20.19
2022-08-19T21:36:22.042Z,20.12
2022-08-19T21:38:51.760Z,19.98
2022-08-19T21:41:23.204Z,19.91
2022-08-19T21:43:53.222Z,19.88
2022-08-19T21:46:23.120Z,19.84
2022-08-19T21:48:53.111Z,19.83
2022-08-19T21:53:37.605Z,19.67
2022-08-19T21:56:08.763Z,19.62
2022-08-19T21:58:39.003Z,19.62
2022-08-19T22:01:09.971Z,19.61
2022-08-19T22:03:42.016Z,19.58
2022-08-19T22:06:12.106Z,19.51
2022-08-19T22:08:45.026Z,19.47
2022-08-19T22:11:15.061Z,19.49
2022-08-19T22:13:45.043Z,19.48
2022-08-19T22:16:15.843Z,19.49
2022-08-19T22:18:46.081Z,19.49
2022-08-19T22:21:16.221Z,19.42
2022-08-19T22:24:01.782Z,19.36
2022-08-19T22:26:34.124Z,19.28
2022-08-19T22:29:04.061Z,19.21
2022-08-19T22:31:34.521Z,19.15
2022-08-19T22:34:05.603Z,19.00
2022-08-19T22:36:35.840Z,18.99
2022-08-19T22:39:07.560Z,18.93
2022-08-19T22:41:37.943Z,18.98
2022-08-19T22:44:08.042Z,18.97
2022-08-19T22:46:37.904Z,18.94
2022-08-19T22:49:07.780Z,18.91
2022-08-19T22:51:54.783Z,18.90
2022-08-19T22:54:27.260Z,18.88
2022-08-19T22:56:57.320Z,18.80
2022-08-19T22:59:27.466Z,18.77
2022-08-19T23:01:57.262Z,18.70
2022-08-19T23:04:27.360Z,18.65
2022-08-19T23:06:57.942Z,18.62
2022-08-19T23:09:30.528Z,18.55
2022-08-19T23:12:00.985Z,18.48
2022-08-19T23:14:31.125Z,18.45
2022-08-19T23:17:01.726Z,18.42
2022-08-19T23:19:31.743Z,18.38
2022-08-19T23:22:02.175Z,18.36
2022-08-19T23:24:33.884Z,18.28
2022-08-19T23:27:22.279Z,18.21
2022-08-19T23:30:11.142Z,18.20
2022-08-19T23:32:41.643Z,18.20
2022-08-19T23:35:12.043Z,17.98
2022-08-19T23:37:41.883Z,17.96
2022-08-19T23:40:13.902Z,17.86
2022-08-19T23:42:47.104Z,17.88
2022-08-19T23:45:21.571Z,17.86
2022-08-19T23:47:54.107Z,17.77
2022-08-19T23:50:24.970Z,17.80
2022-08-19T23:52:58.459Z,17.84
2022-08-19T23:55:35.732Z,17.80
2022-08-19T23:58:07.920Z,17.72
